Time;durP1;ratioP1;P1;durP2;ratioP2;P2;SDS_P1;SDS_P2;PMS_P1;PMS_P2;Temp;Humidity;BMP_temperature;BMP_pressure;BME280_temperature;BME280_humidity;BME280_pressure;Samples;Min_cycle;Max_cycle;Signal;HPM_P1;HPM_P2
2022/01/26 00:06:47;;;;;;;46.17;19.67;;;;;;;4.35;95.86;103130.63;5069302;28;20275;-74
2022/01/26 00:09:13;;;;;;;47.70;19.83;;;;;;;4.33;95.66;103133.81;5070568;28;20213;-74
2022/01/26 00:11:39;;;;;;;51.40;21.77;;;;;;;4.32;95.54;103129.50;5071153;28;20227;-73
2022/01/26 00:14:12;;;;;;;48.27;20.60;;;;;;;4.31;95.66;103128.59;5070823;28;20306;-75
2022/01/26 00:16:40;;;;;;;45.43;20.73;;;;;;;4.35;95.35;103133.16;5070745;28;20657;-73
2022/01/26 00:19:46;;;;;;;46.70;20.87;;;;;;;4.34;94.95;103133.03;5069038;28;20294;-75
2022/01/26 00:22:01;;;;;;;46.40;20.67;;;;;;;4.31;95.84;103138.75;5070330;28;20254;-75
2022/01/26 00:27:20;;;;;;;48.63;20.23;;;;;;;4.26;95.75;103124.81;5070556;28;20542;-75
2022/01/26 00:29:49;;;;;;;47.27;20.60;;;;;;;4.24;95.35;103121.25;5070346;28;20351;-75
2022/01/26 00:40:34;;;;;;;52.50;21.87;;;;;;;4.13;95.61;103133.81;5069029;28;20193;-76
2022/01/26 00:43:09;;;;;;;45.33;20.47;;;;;;;4.14;95.42;103131.41;5070467;28;20173;-74
2022/01/26 00:45:36;;;;;;;50.07;19.73;;;;;;;4.18;95.50;103132.56;5070550;28;20176;-73
2022/01/26 00:48:04;;;;;;;49.30;19.97;;;;;;;4.17;95.65;103119.00;5070154;28;20227;-73
2022/01/26 00:50:31;;;;;;;46.40;19.80;;;;;;;4.17;95.39;103113.94;5068821;28;20239;-74
2022/01/26 00:52:56;;;;;;;45.60;19.00;;;;;;;4.16;95.54;103111.25;5070192;28;20203;-74
2022/01/26 00:55:22;;;;;;;42.73;18.27;;;;;;;4.17;95.85;103105.41;5052052;28;20197;-74
2022/01/26 00:57:48;;;;;;;49.27;19.70;;;;;;;4.08;95.62;103097.97;5069105;28;20212;-75
2022/01/26 01:00:25;;;;;;;47.93;19.33;;;;;;;4.06;95.68;103098.59;5069884;28;20196;-74
2022/01/26 01:02:52;;;;;;;48.53;19.30;;;;;;;4.07;95.69;103101.28;5070069;28;20169;-76
2022/01/26 01:05:22;;;;;;;47.27;20.30;;;;;;;4.05;95.22;103090.09;5069393;28;20192;-74
2022/01/26 01:07:53;;;;;;;48.07;19.60;;;;;;;4.06;95.61;103084.31;5069647;28;20235;-75
2022/01/26 01:10:22;;;;;;;48.10;20.73;;;;;;;4.03;95.31;103090.75;5069811;28;20539;-74
2022/01/26 01:12:49;;;;;;;45.57;19.80;;;;;;;4.03;95.30;103085.66;5069903;28;20563;-74
2022/01/26 01:15:16;;;;;;;51.20;20.67;;;;;;;4.04;95.47;103095.03;5068629;28;20581;-74
2022/01/26 01:17:47;;;;;;;43.87;19.37;;;;;;;4.03;95.59;103090.75;5069833;28;20284;-74
2022/01/26 01:25:59;;;;;;;52.90;20.57;;;;;;;4.06;95.75;103094.44;5068339;28;20231;-74
2022/01/26 01:28:24;;;;;;;47.60;19.57;;;;;;;4.06;95.44;103078.34;5069353;28;20208;-74
2022/01/26 01:30:56;;;;;;;46.13;19.13;;;;;;;4.06;95.59;103076.69;5069629;28;20193;-74
2022/01/26 01:33:27;;;;;;;53.03;19.97;;;;;;;4.02;95.56;103074.66;5069912;28;20280;-74
2022/01/26 01:35:53;;;;;;;49.03;19.83;;;;;;;4.06;95.42;103078.34;5068410;28;20173;-74
2022/01/26 01:38:20;;;;;;;46.33;19.53;;;;;;;4.06;95.52;103076.69;5069264;28;20694;-75
2022/01/26 01:40:48;;;;;;;45.23;20.30;;;;;;;4.06;95.07;103079.22;5069487;28;20704;-74
2022/01/26 01:43:16;;;;;;;44.93;18.97;;;;;;;4.06;95.39;103079.22;5068202;28;20193;-76
2022/01/26 01:45:49;;;;;;;51.27;19.37;;;;;;;4.06;95.39;103075.78;5069553;28;20185;-74
2022/01/26 01:48:20;;;;;;;44.07;18.53;;;;;;;4.06;94.84;103070.72;5069282;28;20275;-75
2022/01/26 01:50:48;;;;;;;52.43;19.87;;;;;;;4.04;95.32;103067.16;5069599;28;20184;-75
2022/01/26 01:53:17;;;;;;;45.80;18.37;;;;;;;4.04;95.10;103064.63;5069350;28;20196;-75
2022/01/26 01:55:46;;;;;;;47.77;19.47;;;;;;;4.01;95.04;103059.34;5068182;28;20263;-74
2022/01/26 01:58:12;;;;;;;39.37;17.50;;;;;;;4.00;94.88;103055.03;5069381;28;20223;-74
2022/01/26 02:00:38;;;;;;;43.57;18.07;;;;;;;3.97;94.97;103048.06;5068321;28;20193;-74
2022/01/26 02:03:04;;;;;;;41.37;18.37;;;;;;;3.92;94.70;103049.31;5069471;28;20185;-75
2022/01/26 02:05:29;;;;;;;43.53;17.60;;;;;;;3.92;95.02;103044.25;5069119;28;20185;-75
2022/01/26 02:07:54;;;;;;;54.33;20.53;;;;;;;3.86;94.58;103042.91;5069283;28;20204;-74
2022/01/26 02:10:24;;;;;;;47.30;19.50;;;;;;;3.86;94.97;103040.38;5073072;28;20238;-75
2022/01/26 02:12:59;;;;;;;43.83;18.97;;;;;;;3.84;95.07;103034.28;5071840;28;20220;-76
2022/01/26 02:15:32;;;;;;;44.77;19.13;;;;;;;3.82;95.07;103029.06;5073147;28;20193;-74
2022/01/26 02:18:22;;;;;;;42.87;18.70;;;;;;;3.80;95.65;103034.78;5072825;28;20212;-75
2022/01/26 02:51:17;;;;;;;55.57;21.80;;;;;;;3.87;96.03;103001.59;5072755;28;20668;-75
2022/01/26 02:56:27;;;;;;;49.47;21.07;;;;;;;3.86;95.90;102989.69;5072680;28;20170;-74
2022/01/26 03:01:49;;;;;;;55.13;21.93;;;;;;;3.88;96.16;102999.19;5072811;28;20311;-74
2022/01/26 03:06:52;;;;;;;54.93;22.40;;;;;;;3.92;96.58;103002.84;5072109;28;20260;-74
2022/01/26 03:09:24;;;;;;;64.63;23.80;;;;;;;3.87;96.20;103009.19;5053959;28;20235;-74
2022/01/26 03:11:49;;;;;;;57.03;22.67;;;;;;;3.92;96.57;103018.03;5071134;28;20223;-74
2022/01/26 03:15:01;;;;;;;56.13;23.40;;;;;;;3.92;96.41;103018.03;5054341;28;20592;-74
2022/01/26 03:17:18;;;;;;;58.83;23.43;;;;;;;3.92;96.23;103018.91;5066354;28;20224;-74
2022/01/26 03:19:48;;;;;;;56.20;23.03;;;;;;;3.93;96.71;103014.75;5070821;28;20217;-75
2022/01/26 03:30:51;;;;;;;60.00;24.23;;;;;;;3.92;96.74;102990.19;5071870;28;20162;-75
2022/01/26 03:36:02;;;;;;;59.33;24.40;;;;;;;3.89;96.84;102972.19;5071643;28;20184;-74
2022/01/26 03:38:40;;;;;;;64.17;25.67;;;;;;;3.84;96.62;102974.38;5069952;28;20247;-75
2022/01/26 03:41:14;;;;;;;66.20;25.13;;;;;;;3.83;97.01;102965.00;5071644;28;20563;-74
2022/01/26 03:43:39;;;;;;;68.97;26.37;;;;;;;3.84;97.53;102968.41;5071557;28;20204;-75
2022/01/26 03:46:05;;;;;;;65.33;26.77;;;;;;;3.86;97.10;102965.22;5071514;28;20224;-74
2022/01/26 03:48:30;;;;;;;58.37;24.67;;;;;;;3.85;97.43;102954.97;5069790;28;20288;-74
2022/01/26 03:50:56;;;;;;;67.17;25.13;;;;;;;3.81;97.36;102960.53;5069922;28;20200;-75
2022/01/26 03:53:21;;;;;;;61.10;24.43;;;;;;;3.78;96.86;102958.66;5070255;28;20616;-75
2022/01/26 03:55:46;;;;;;;59.73;23.63;;;;;;;3.81;96.86;102960.53;5069987;28;20191;-75
2022/01/26 03:58:12;;;;;;;61.97;24.73;;;;;;;3.81;97.14;102955.47;5070874;28;20304;-74
2022/01/26 04:00:37;;;;;;;60.83;25.27;;;;;;;3.80;96.61;102962.22;5071161;28;20232;-75
2022/01/26 04:03:03;;;;;;;54.97;23.80;;;;;;;3.79;97.29;102955.38;5071448;28;20166;-75
2022/01/26 04:05:29;;;;;;;59.50;23.53;;;;;;;3.80;97.18;102957.16;5070771;28;20244;-75
2022/01/26 04:08:00;;;;;;;63.63;24.83;;;;;;;3.81;96.57;102958.91;5070870;28;20216;-74
2022/01/26 04:12:57;;;;;;;59.77;25.47;;;;;;;3.84;96.18;102964.22;5071056;28;20256;-73
2022/01/26 04:15:27;;;;;;;60.93;25.33;;;;;;;3.83;97.25;102971.69;5070910;28;20283;-74
2022/01/26 04:17:53;;;;;;;57.57;24.70;;;;;;;3.86;96.61;102974.50;5069473;28;20223;-73
2022/01/26 04:20:20;;;;;;;61.50;25.53;;;;;;;3.86;96.66;102972.81;5070668;28;20280;-74
2022/01/26 04:23:04;;;;;;;60.20;24.23;;;;;;;3.84;96.67;102970.94;5071157;28;20757;-74
2022/01/26 04:25:30;;;;;;;62.33;24.03;;;;;;;3.86;96.45;102979.56;5070908;28;20177;-74
2022/01/26 04:27:58;;;;;;;59.13;24.40;;;;;;;3.87;96.14;102991.47;5070969;28;20527;-73
2022/01/26 04:30:23;;;;;;;54.80;24.57;;;;;;;3.87;96.40;102994.00;5070572;28;20181;-73
2022/01/26 04:32:48;;;;;;;53.70;23.10;;;;;;;3.87;96.03;102986.41;5070435;28;20330;-74
2022/01/26 04:35:14;;;;;;;59.40;22.73;;;;;;;3.87;96.39;102987.25;5070480;28;20181;-73
2022/01/26 04:38:12;;;;;;;58.63;24.27;;;;;;;3.87;96.36;102974.59;5069048;28;20213;-74
2022/01/26 04:40:45;;;;;;;54.90;22.60;;;;;;;3.84;95.99;102973.47;5070330;28;20619;-73
2022/01/26 04:43:17;;;;;;;54.67;23.67;;;;;;;3.85;95.69;102965.09;5070350;28;20252;-73
2022/01/26 04:45:43;;;;;;;49.77;22.37;;;;;;;3.83;95.53;102967.53;5068907;28;20196;-74
2022/01/26 04:48:08;;;;;;;52.63;23.07;;;;;;;3.83;95.63;102962.47;5070098;28;20686;-73
2022/01/26 04:50:34;;;;;;;53.87;22.03;;;;;;;3.84;96.06;102965.88;5068819;28;20280;-75
2022/01/26 04:53:00;;;;;;;46.67;21.23;;;;;;;3.84;95.69;102963.34;5070163;28;20185;-73
2022/01/26 04:55:25;;;;;;;54.33;21.40;;;;;;;3.84;95.88;102961.69;5070133;28;20279;-75
2022/01/26 04:57:50;;;;;;;53.00;22.77;;;;;;;3.82;95.28;102954.75;5069856;28;20216;-74
2022/01/26 05:00:16;;;;;;;51.20;22.63;;;;;;;3.81;95.59;102956.38;5070247;28;20205;-74
2022/01/26 05:02:41;;;;;;;51.80;21.13;;;;;;;3.81;95.61;102952.94;5068661;28;20240;-75
2022/01/26 05:05:07;;;;;;;56.13;22.13;;;;;;;3.81;95.20;102946.25;5069677;28;20292;-74
2022/01/26 05:07:32;;;;;;;52.30;21.83;;;;;;;3.79;95.20;102934.22;5068695;28;20173;-74
2022/01/26 05:09:58;;;;;;;46.47;20.67;;;;;;;3.77;95.35;102941.69;5068287;28;20300;-74
2022/01/26 05:12:23;;;;;;;53.80;22.33;;;;;;;3.79;94.94;102930.06;5069900;28;20268;-73
2022/01/26 05:14:50;;;;;;;44.37;20.33;;;;;;;3.77;94.72;102923.09;5068493;28;20638;-73
2022/01/26 05:17:19;;;;;;;51.23;22.93;;;;;;;3.77;95.07;102920.56;5069830;28;20783;-73
2022/01/26 05:19:44;;;;;;;50.13;21.67;;;;;;;3.78;95.54;102928.25;5069466;28;20223;-74
2022/01/26 05:22:09;;;;;;;44.90;19.90;;;;;;;3.79;95.34;102931.69;5070129;28;20181;-75
2022/01/26 05:24:35;;;;;;;46.77;19.73;;;;;;;3.77;94.74;102933.22;5069725;28;20192;-73
2022/01/26 05:27:00;;;;;;;44.93;18.43;;;;;;;3.75;94.58;102925.50;5069651;28;20287;-74
2022/01/26 05:29:25;;;;;;;42.10;18.87;;;;;;;3.75;95.06;102922.06;5068178;28;20546;-73
2022/01/26 05:31:51;;;;;;;42.20;18.83;;;;;;;3.74;94.14;102906.00;5069617;28;20212;-73
2022/01/26 05:34:16;;;;;;;47.33;19.27;;;;;;;3.72;95.03;102910.03;5068343;28;20203;-72
2022/01/26 05:36:41;;;;;;;44.63;18.50;;;;;;;3.73;94.48;102908.41;5069828;28;20264;-73
2022/01/26 05:39:07;;;;;;;42.37;18.53;;;;;;;3.73;94.28;102905.88;5068429;28;20309;-75
2022/01/26 05:41:32;;;;;;;36.63;16.47;;;;;;;3.73;94.27;102905.88;5068392;28;20208;-74
2022/01/26 05:43:59;;;;;;;37.03;16.97;;;;;;;3.70;94.39;102908.16;5074082;28;20184;-73
2022/01/26 05:46:32;;;;;;;37.47;17.60;;;;;;;3.67;94.50;102915.50;5074765;28;20185;-73
2022/01/26 05:48:57;;;;;;;36.60;16.03;;;;;;;3.65;94.11;102915.41;5075895;28;20219;-74
2022/01/26 05:51:23;;;;;;;39.47;17.27;;;;;;;3.67;94.15;102923.09;5076166;28;20180;-74
2022/01/26 05:53:48;;;;;;;34.80;15.37;;;;;;;3.67;93.88;102916.41;5076139;28;20664;-73
2022/01/26 05:56:14;;;;;;;37.57;15.00;;;;;;;3.64;93.65;102910.22;5076065;28;20187;-74
2022/01/26 05:58:39;;;;;;;33.27;14.27;;;;;;;3.62;93.95;102906.66;5075841;28;20220;-74
2022/01/26 06:01:05;;;;;;;34.30;15.00;;;;;;;3.62;94.32;102909.19;5074658;28;20216;-74
2022/01/26 06:03:31;;;;;;;37.00;14.97;;;;;;;3.63;94.26;102918.56;5074959;28;20236;-74
2022/01/26 06:05:58;;;;;;;36.57;14.53;;;;;;;3.63;93.85;102921.09;5075723;28;20531;-74
2022/01/26 06:08:24;;;;;;;32.67;15.40;;;;;;;3.60;93.63;102926.81;5075866;28;20196;-73
2022/01/26 06:10:50;;;;;;;29.43;13.60;;;;;;;3.63;93.48;102921.97;5057977;28;20184;-74
2022/01/26 06:13:15;;;;;;;29.47;14.50;;;;;;;3.62;93.91;102930.34;5075867;28;20232;-73
2022/01/26 06:15:41;;;;;;;31.93;14.67;;;;;;;3.62;93.56;102921.84;5075798;28;20192;-75
2022/01/26 06:18:06;;;;;;;29.03;13.43;;;;;;;3.60;93.79;102915.78;5074272;28;20327;-74
2022/01/26 06:20:32;;;;;;;28.77;13.37;;;;;;;3.59;93.39;102899.69;5075777;28;20661;-74
2022/01/26 06:22:57;;;;;;;32.77;14.03;;;;;;;3.57;93.70;102880.97;5075925;28;20280;-73
2022/01/26 06:25:22;;;;;;;31.17;13.43;;;;;;;3.56;93.05;102880.84;5075906;28;20582;-74
2022/01/26 06:27:52;;;;;;;32.23;14.17;;;;;;;3.58;93.81;102902.13;5075673;28;20567;-76
2022/01/26 06:30:17;;;;;;;32.73;14.33;;;;;;;3.58;93.91;102889.47;5075787;28;20622;-72
2022/01/26 06:32:43;;;;;;;32.43;14.47;;;;;;;3.55;93.72;102881.63;5075606;28;20246;-74
2022/01/26 06:35:09;;;;;;;35.30;15.07;;;;;;;3.54;93.87;102898.44;5076036;28;20189;-74
2022/01/26 06:37:34;;;;;;;31.40;13.93;;;;;;;3.52;93.65;102891.50;5076064;28;20213;-74
2022/01/26 06:40:00;;;;;;;32.80;15.13;;;;;;;3.53;94.08;102881.50;5075614;28;20304;-72
2022/01/26 06:42:30;;;;;;;31.70;15.17;;;;;;;3.51;93.61;102885.56;5075625;28;20193;-74
2022/01/26 06:49:48;;;;;;;36.83;15.63;;;;;;;3.51;94.44;102854.28;5075589;28;20220;-73
2022/01/26 06:52:14;;;;;;;38.37;16.57;;;;;;;3.50;94.43;102855.03;5074516;28;20193;-74
2022/01/26 06:54:39;;;;;;;35.73;14.63;;;;;;;3.50;94.22;102865.19;5072706;28;20195;-75
2022/01/26 06:57:04;;;;;;;35.03;15.07;;;;;;;3.49;93.90;102866.81;5071205;28;20200;-73
2022/01/26 06:59:30;;;;;;;34.37;15.33;;;;;;;3.50;94.28;102862.66;5072152;28;20212;-74
2022/01/26 07:01:55;;;;;;;39.43;16.97;;;;;;;3.50;94.61;102870.25;5072319;28;20196;-73
2022/01/26 07:04:20;;;;;;;33.90;15.67;;;;;;;3.50;94.63;102860.13;5072356;28;20178;-74
2022/01/26 07:06:46;;;;;;;36.97;15.40;;;;;;;3.49;94.13;102869.34;5072113;28;20200;-73
2022/01/26 07:09:12;;;;;;;32.40;14.83;;;;;;;3.50;94.25;102865.19;5070651;28;20205;-73
2022/01/26 07:11:37;;;;;;;35.50;15.20;;;;;;;3.47;93.45;102863.28;5072119;28;20588;-74
2022/01/26 07:14:07;;;;;;;38.23;17.33;;;;;;;3.49;94.17;102866.81;5072332;28;20188;-74
2022/01/26 07:22:00;;;;;;;36.00;16.30;;;;;;;3.49;93.65;102868.47;5072036;28;20173;-74
2022/01/26 07:24:25;;;;;;;35.03;15.30;;;;;;;3.48;93.75;102865.03;5071916;28;20640;-73
2022/01/26 07:26:53;;;;;;;32.57;15.00;;;;;;;3.47;93.83;102873.41;5071687;28;20594;-73
2022/01/26 07:29:22;;;;;;;34.53;15.13;;;;;;;3.49;94.22;102868.47;5071497;28;20571;-74
2022/01/26 07:31:48;;;;;;;31.90;15.10;;;;;;;3.49;94.24;102873.53;5071694;28;20200;-73
2022/01/26 07:34:14;;;;;;;34.57;17.20;;;;;;;3.50;93.68;102878.69;5053649;28;20189;-73
2022/01/26 07:36:46;;;;;;;35.90;15.57;;;;;;;3.52;94.20;102879.72;5071639;28;20193;-73
2022/01/26 07:39:15;;;;;;;33.10;14.80;;;;;;;3.51;93.37;102894.78;5071320;28;20720;-73
2022/01/26 07:41:40;;;;;;;33.60;15.50;;;;;;;3.49;93.82;102888.72;5053492;28;20220;-73
2022/01/26 07:44:06;;;;;;;30.17;15.13;;;;;;;3.52;93.82;102886.44;5070096;28;20662;-73
2022/01/26 07:46:32;;;;;;;38.10;16.40;;;;;;;3.52;94.25;102884.78;5070062;28;20725;-72
2022/01/26 07:48:57;;;;;;;35.27;16.77;;;;;;;3.52;93.73;102907.56;5053140;28;20297;-74
2022/01/26 07:51:23;;;;;;;32.33;15.90;;;;;;;3.52;94.30;102899.97;5071344;28;20272;-72
2022/01/26 07:53:48;;;;;;;36.50;16.67;;;;;;;3.52;94.12;102916.81;5069994;28;20276;-73
2022/01/26 07:56:14;;;;;;;33.83;16.03;;;;;;;3.55;94.16;102914.53;5070125;28;20184;-73
2022/01/26 07:58:42;;;;;;;33.80;15.40;;;;;;;3.53;94.05;102911.88;5070925;28;20266;-75
2022/01/26 08:01:08;;;;;;;33.90;16.57;;;;;;;3.54;93.53;102921.22;5071342;28;20185;-73
2022/01/26 08:03:34;;;;;;;35.53;15.53;;;;;;;3.54;94.32;102926.28;5070063;28;20188;-73
2022/01/26 08:06:00;;;;;;;35.77;15.90;;;;;;;3.53;94.01;102916.94;5071287;28;20250;-74
2022/01/26 08:08:27;;;;;;;31.63;15.07;;;;;;;3.57;93.94;102915.53;5071050;28;20209;-75
2022/01/26 08:10:52;;;;;;;32.37;16.13;;;;;;;3.58;93.56;102919.84;5070992;28;20276;-75
2022/01/26 08:13:17;;;;;;;32.13;16.03;;;;;;;3.57;94.10;102924.03;5069829;28;20629;-73
2022/01/26 08:15:43;;;;;;;40.03;17.87;;;;;;;3.58;93.66;102925.78;5070770;28;20181;-74
2022/01/26 08:18:08;;;;;;;36.00;16.60;;;;;;;3.55;93.99;102920.47;5070583;28;20208;-73
2022/01/26 08:20:33;;;;;;;34.30;17.20;;;;;;;3.56;94.09;102916.28;5069489;28;20258;-73
2022/01/26 08:22:59;;;;;;;37.57;17.80;;;;;;;3.56;93.96;102916.28;5069330;28;20567;-74
2022/01/26 08:25:25;;;;;;;37.53;18.03;;;;;;;3.56;94.14;102912.13;5070722;28;20197;-73
2022/01/26 08:28:04;;;;;;;39.47;20.30;;;;;;;3.53;94.54;102899.22;5070420;28;20284;-73
2022/01/26 08:30:31;;;;;;;40.00;19.50;;;;;;;3.56;94.36;102901.09;5069271;28;20594;-73
2022/01/26 08:32:56;;;;;;;39.73;18.30;;;;;;;3.55;94.50;102897.66;5069208;28;20204;-73
2022/01/26 08:35:21;;;;;;;40.87;18.97;;;;;;;3.54;95.04;102903.50;5070591;28;20181;-73
2022/01/26 08:37:47;;;;;;;42.20;20.03;;;;;;;3.52;95.21;102889.84;5070389;28;20212;-74
2022/01/26 08:40:12;;;;;;;39.93;19.37;;;;;;;3.52;95.03;102897.44;5070444;28;20185;-73
2022/01/26 08:42:39;;;;;;;39.83;18.03;;;;;;;3.48;94.50;102894.53;5068988;28;20552;-73
2022/01/26 08:45:05;;;;;;;42.50;19.80;;;;;;;3.51;94.62;102895.69;5070358;28;20200;-74
2022/01/26 08:47:31;;;;;;;44.93;20.60;;;;;;;3.55;94.64;102895.13;5068901;28;20283;-75
2022/01/26 08:49:56;;;;;;;44.07;21.00;;;;;;;3.49;95.01;102887.06;5069998;28;20304;-73
2022/01/26 08:52:21;;;;;;;37.93;19.43;;;;;;;3.45;94.72;102891.78;5068892;28;20189;-73
2022/01/26 08:54:46;;;;;;;39.40;19.93;;;;;;;3.53;94.42;102895.78;5068767;28;20181;-73
2022/01/26 08:57:12;;;;;;;44.33;19.87;;;;;;;3.52;94.71;102886.44;5069985;28;20700;-73
2022/01/26 08:59:37;;;;;;;40.13;19.40;;;;;;;3.53;93.84;102890.72;5069908;28;20200;-73
2022/01/26 09:02:03;;;;;;;41.50;19.33;;;;;;;3.58;94.18;102886.94;5070082;28;20188;-73
2022/01/26 09:04:28;;;;;;;40.40;19.03;;;;;;;3.50;94.09;102891.34;5068807;28;20548;-73
2022/01/26 09:06:59;;;;;;;39.17;20.63;;;;;;;3.56;94.24;102891.88;5069761;28;20189;-74
2022/01/26 09:09:41;;;;;;;43.70;20.03;;;;;;;3.53;93.91;102899.22;5069816;28;20251;-73
2022/01/26 09:12:09;;;;;;;39.53;19.43;;;;;;;3.54;93.92;102900.97;5068764;28;20170;-73
2022/01/26 09:14:35;;;;;;;36.37;19.33;;;;;;;3.53;94.02;102906.81;5069955;28;20188;-73
2022/01/26 09:17:02;;;;;;;47.27;21.87;;;;;;;3.51;93.91;102921.00;5068226;28;20566;-73
2022/01/26 09:22:02;;;;;;;46.17;20.10;;;;;;;3.50;93.92;102919.22;5070054;28;20612;-73
2022/01/26 09:24:30;;;;;;;46.13;22.47;;;;;;;3.50;93.93;102915.81;5069960;28;20172;-73
2022/01/26 09:26:56;;;;;;;47.87;21.97;;;;;;;3.51;93.76;102921.00;5070111;28;20186;-73
2022/01/26 09:29:21;;;;;;;38.47;20.67;;;;;;;3.50;93.61;102916.69;5068333;28;20270;-75
2022/01/26 09:31:47;;;;;;;41.93;20.30;;;;;;;3.53;93.49;102916.03;5068616;28;20605;-73
2022/01/26 09:34:24;;;;;;;45.00;21.47;;;;;;;3.54;93.37;102915.31;5069906;28;20193;-75
2022/01/26 09:36:49;;;;;;;42.80;19.60;;;;;;;3.49;93.59;102921.66;5068743;28;20230;-73
2022/01/26 09:39:17;;;;;;;42.97;20.93;;;;;;;3.52;94.40;102929.47;5069816;28;20203;-74
2022/01/26 09:41:48;;;;;;;47.40;20.47;;;;;;;3.48;93.84;102930.88;5069871;28;20181;-73
2022/01/26 09:44:14;;;;;;;42.77;21.23;;;;;;;3.45;93.82;102937.34;5068715;28;20242;-73
2022/01/26 09:46:39;;;;;;;43.33;21.83;;;;;;;3.46;93.91;102936.59;5069735;28;20181;-72
2022/01/26 09:49:06;;;;;;;39.53;20.87;;;;;;;3.38;93.43;102933.44;5069450;28;20197;-73
2022/01/26 09:51:38;;;;;;;40.17;19.83;;;;;;;3.44;94.22;102931.38;5069653;28;20632;-73
2022/01/26 09:54:09;;;;;;;45.63;21.40;;;;;;;3.49;94.25;102924.19;5069511;28;20700;-74
2022/01/26 09:56:35;;;;;;;45.80;21.50;;;;;;;3.48;94.05;102924.91;5069536;28;20639;-74
2022/01/26 09:59:00;;;;;;;44.70;21.70;;;;;;;3.53;93.75;102931.22;5067736;28;20260;-74
2022/01/26 10:01:26;;;;;;;46.07;22.20;;;;;;;3.46;93.34;102924.81;5069534;28;20197;-73
2022/01/26 10:03:52;;;;;;;47.67;23.07;;;;;;;3.48;93.74;102917.31;5069458;28;20185;-75
2022/01/26 10:06:26;;;;;;;46.10;22.37;;;;;;;3.49;93.74;102926.72;5067752;28;20693;-73
2022/01/26 10:09:25;;;;;;;45.97;21.90;;;;;;;3.44;93.49;102923.78;5067826;28;20200;-74
2022/01/26 10:17:42;;;;;;;44.00;20.03;;;;;;;3.43;92.75;102916.06;5069179;28;20955;-73
2022/01/26 10:20:03;;;;;;;41.63;20.77;;;;;;;3.43;93.01;102911.00;5066666;28;20663;-73
2022/01/26 10:22:33;;;;;;;49.57;20.77;;;;;;;3.45;92.45;102914.56;5069299;28;20177;-74
2022/01/26 10:25:25;;;;;;;41.67;19.27;;;;;;;3.42;93.03;102899.13;5051188;28;20173;-74
2022/01/26 10:27:51;;;;;;;45.77;21.90;;;;;;;3.44;92.42;102893.41;5063883;28;20274;-75
2022/01/26 10:30:20;;;;;;;45.50;22.67;;;;;;;3.44;92.43;102901.00;5071240;28;20243;-74
2022/01/26 10:32:46;;;;;;;46.27;22.03;;;;;;;3.44;92.32;102898.47;5073126;28;20276;-73
2022/01/26 10:35:14;;;;;;;49.63;21.57;;;;;;;3.47;91.94;102892.78;5073073;28;20332;-73
2022/01/26 10:37:53;;;;;;;48.80;21.97;;;;;;;3.48;92.33;102879.34;5071430;28;20579;-74
2022/01/26 10:40:26;;;;;;;50.40;23.03;;;;;;;3.45;92.37;102882.50;5071537;28;20185;-73
2022/01/26 10:42:56;;;;;;;52.80;23.33;;;;;;;3.54;91.96;102887.44;5072775;28;20216;-74
2022/01/26 10:48:35;;;;;;;46.03;21.57;;;;;;;3.49;92.33;102899.72;5072456;28;20200;-73
2022/01/26 10:53:48;;;;;;;46.43;20.17;;;;;;;3.54;91.77;102898.44;5072626;28;20222;-73
2022/01/26 10:56:14;;;;;;;49.37;21.93;;;;;;;3.53;91.89;102881.50;5072333;28;20177;-74
2022/01/26 10:58:41;;;;;;;51.17;21.47;;;;;;;3.47;91.42;102888.59;5072220;28;20201;-73
2022/01/26 11:01:06;;;;;;;47.00;21.23;;;;;;;3.54;91.81;102879.84;5072418;28;20177;-74
2022/01/26 11:03:33;;;;;;;48.33;21.93;;;;;;;3.57;91.12;102875.91;5072298;28;20250;-74
2022/01/26 11:06:03;;;;;;;49.03;22.00;;;;;;;3.56;91.82;102879.22;5070637;28;20193;-73
2022/01/26 11:08:30;;;;;;;48.43;21.50;;;;;;;3.55;91.58;102885.00;5071870;28;20197;-74
2022/01/26 11:10:56;;;;;;;52.70;22.27;;;;;;;3.56;91.40;102875.78;5072082;28;20193;-74
2022/01/26 11:13:42;;;;;;;46.73;22.27;;;;;;;3.58;91.81;102885.28;5072129;28;20217;-74
2022/01/26 11:16:10;;;;;;;48.23;22.37;;;;;;;3.59;91.63;102887.03;5070213;28;20205;-73
2022/01/26 11:18:52;;;;;;;53.63;21.87;;;;;;;3.57;91.62;102885.13;5071647;28;20992;-73
2022/01/26 11:21:33;;;;;;;52.50;22.90;;;;;;;3.63;91.57;102885.66;5072099;28;20555;-73
2022/01/26 11:24:11;;;;;;;50.03;22.77;;;;;;;3.57;91.38;102880.97;5071861;28;20191;-74
2022/01/26 11:26:38;;;;;;;55.93;25.47;;;;;;;3.46;91.57;102873.28;5071850;28;20185;-73
2022/01/26 11:29:24;;;;;;;57.40;24.87;;;;;;;3.50;92.15;102863.50;5071621;28;20237;-73
2022/01/26 11:32:16;;;;;;;54.23;23.83;;;;;;;3.44;92.28;102850.38;5071974;28;20646;-73
2022/01/26 11:34:42;;;;;;;59.03;25.27;;;;;;;3.41;92.59;102854.31;5071728;28;20189;-73
2022/01/26 11:37:13;;;;;;;57.03;24.03;;;;;;;3.34;93.12;102852.03;5071585;28;20727;-75
2022/01/26 11:45:15;;;;;;;59.20;25.00;;;;;;;3.44;93.33;102841.88;5071683;28;20173;-76
2022/01/26 11:48:08;;;;;;;60.53;24.07;;;;;;;3.40;93.14;102833.16;5071864;28;20173;-74
2022/01/26 11:50:36;;;;;;;62.27;25.37;;;;;;;3.32;92.59;102821.53;5070456;28;20185;-73
2022/01/26 11:53:10;;;;;;;65.33;26.53;;;;;;;3.43;93.53;102809.72;5071461;28;20897;-74
2022/01/26 11:55:44;;;;;;;62.30;26.53;;;;;;;3.46;92.70;102798.22;5071372;28;20189;-74
2022/01/26 11:58:12;;;;;;;63.33;26.07;;;;;;;3.38;92.87;102784.06;5071109;28;20282;-72
2022/01/26 12:00:56;;;;;;;64.00;26.43;;;;;;;3.36;92.85;102783.06;5070010;28;20259;-73
2022/01/26 12:03:25;;;;;;;62.57;26.93;;;;;;;3.40;92.63;102792.66;5071797;28;20185;-72
2022/01/26 12:05:55;;;;;;;61.73;24.90;;;;;;;3.40;93.01;102791.78;5070905;28;20223;-73
2022/01/26 12:08:30;;;;;;;58.73;24.87;;;;;;;3.41;92.84;102781.75;5069471;28;20251;-74
2022/01/26 12:10:55;;;;;;;54.57;22.87;;;;;;;3.29;92.79;102783.34;5071069;28;20551;-73
2022/01/26 12:13:25;;;;;;;63.47;25.93;;;;;;;3.36;92.80;102778.00;5071014;28;20181;-73
2022/01/26 12:15:55;;;;;;;59.10;24.93;;;;;;;3.35;92.61;102777.91;5070998;28;20181;-73
2022/01/26 12:34:42;;;;;;;69.23;24.80;;;;;;;3.29;92.90;102762.19;5070509;28;20169;-74
2022/01/26 12:45:24;;;;;;;71.63;28.30;;;;;;;3.26;93.32;102770.44;5070264;28;20220;-74
2022/01/26 12:47:51;;;;;;;68.60;27.80;;;;;;;3.32;94.31;102753.19;5052400;28;20181;-74
2022/01/26 12:50:17;;;;;;;73.63;27.70;;;;;;;3.26;93.69;102752.72;5070222;28;20193;-73
2022/01/26 12:52:47;;;;;;;74.37;28.30;;;;;;;3.34;94.43;102751.69;5068040;28;20318;-74
2022/01/26 12:55:42;;;;;;;75.30;28.30;;;;;;;3.30;93.56;102753.84;5068797;28;20212;-74
2022/01/26 12:58:07;;;;;;;76.10;29.40;;;;;;;3.33;93.78;102746.50;5051747;28;20279;-73
2022/01/26 13:00:45;;;;;;;72.67;28.87;;;;;;;3.29;94.06;102722.59;5069053;28;20237;-74
2022/01/26 13:03:13;;;;;;;74.10;29.70;;;;;;;3.30;94.32;102733.59;5068905;28;20181;-74
2022/01/26 13:05:39;;;;;;;74.37;29.83;;;;;;;3.28;94.53;102727.53;5068526;28;20579;-75
2022/01/26 13:08:06;;;;;;;74.17;30.20;;;;;;;3.31;94.96;102723.59;5051733;28;20197;-75
2022/01/26 13:10:33;;;;;;;86.37;31.17;;;;;;;3.29;94.60;102727.66;5069890;28;20177;-72
2022/01/26 13:13:08;;;;;;;74.03;29.77;;;;;;;3.23;94.48;102726.28;5068730;28;20201;-73
2022/01/26 13:15:42;;;;;;;90.57;31.03;;;;;;;3.28;95.02;102719.94;5068643;28;20204;-73
2022/01/26 13:18:19;;;;;;;78.43;30.13;;;;;;;3.28;95.42;102725.00;5069567;28;20266;-73
2022/01/26 13:21:11;;;;;;;78.63;31.17;;;;;;;3.21;95.24;102725.28;5069758;28;20192;-72
2022/01/26 13:23:51;;;;;;;83.30;31.70;;;;;;;3.24;95.82;102720.47;5069804;28;20200;-74
2022/01/26 13:26:32;;;;;;;80.27;29.27;;;;;;;3.17;94.92;102726.69;5069926;28;20230;-73
2022/01/26 13:35:11;;;;;;;80.10;30.83;;;;;;;3.20;95.36;102728.56;5046921;28;20269;-72
2022/01/26 13:38:01;;;;;;;78.83;29.70;;;;;;;3.15;95.98;102719.75;5069489;28;20303;-73
2022/01/26 13:43:37;;;;;;;84.00;31.57;;;;;;;3.17;95.68;102719.09;5068593;28;20637;-72